»·PEaware :: N612SR KVNY-KSBA

N612SR :: KVNY-KSBA

FLIGHT INFORMATION

Flight Status: Arrived
Operator: Privately registered:
United States
More flights under this callsign
Pilot: Rod T. (6553)
Aircraft: CIRRUS SR-22
(SR22)
More flights by this aircraft type
Origin: KVNY Van Nuys
United States
Destination: KSBA Santa Barbara Mun
United States
More flights between these airports :: More routes between these airports
Route: CANOG2 FIM V186 DEANO V27 KWANG
File this flight plan on PilotEdge
Remarks: TEC Route BURN39
Altitude:
(Current/Filed)
6,000ft
Speed:
(Current/Filed)
185kts
Departed: 17-Feb-17 09:55 AM
Arrived: 17-Feb-17 10:39 AM
Distance/Time
Traveled:
68nm/0:44
Distance/Time
To Go:
Arrived

Flight Plot

Page will automatically refresh every two minutes.


Map Options




Map Legend


Flown Route
Filed Route
Departure Airport
Arrival Airport
Navaid (VOR, NDB)
Fix

Horizontal Profiles

Position Reports

Time Latitude Longitude Heading Altitude Ground
Speed
17-Feb-17 09:44 34.206337 -118.491771 87 803ft 0kts
17-Feb-17 09:45 34.206337 -118.491771 87 803ft 0kts
17-Feb-17 09:46 34.206337 -118.491771 87 803ft 0kts
17-Feb-17 09:47 34.206337 -118.491771 87 803ft 0kts
17-Feb-17 09:48 34.206337 -118.491771 87 803ft 0kts
17-Feb-17 09:49 34.209764 -118.491540 357 803ft 24kts
17-Feb-17 09:50 34.216800 -118.492286 357 803ft 25kts
17-Feb-17 09:51 34.218730 -118.492054 72 803ft 0kts
17-Feb-17 09:52 34.218730 -118.492054 72 803ft 0kts
17-Feb-17 09:53 34.218730 -118.492054 72 803ft 0kts
17-Feb-17 09:54 34.218749 -118.491949 82 803ft 5kts
17-Feb-17 09:55 34.201110 -118.489935 171 1146ft 116kts
17-Feb-17 09:56 34.175801 -118.507215 225 2530ft 117kts
17-Feb-17 09:57 34.154010 -118.538685 225 3870ft 126kts
17-Feb-17 09:58 34.148841 -118.575489 301 5428ft 145kts
17-Feb-17 09:59 34.179643 -118.612510 300 5955ft 171kts
17-Feb-17 10:00 34.209776 -118.656945 299 5944ft 173kts
17-Feb-17 10:01 34.240137 -118.702074 299 5945ft 174kts
17-Feb-17 10:02 34.270551 -118.747323 299 5945ft 174kts
17-Feb-17 10:03 34.300991 -118.792657 299 5945ft 174kts
17-Feb-17 10:04 34.331493 -118.838183 299 5918ft 174kts
17-Feb-17 10:05 34.358101 -118.884644 263 5918ft 156kts
17-Feb-17 10:06 34.354565 -118.934341 259 5906ft 155kts
17-Feb-17 10:07 34.350741 -118.986540 259 5890ft 156kts
17-Feb-17 10:08 34.347001 -119.037834 259 5991ft 153kts
17-Feb-17 10:09 34.343147 -119.089755 259 5990ft 155kts
17-Feb-17 10:10 34.339245 -119.141698 259 5990ft 155kts
17-Feb-17 10:11 34.335355 -119.193683 259 5990ft 155kts
17-Feb-17 10:12 34.331420 -119.245864 259 5963ft 156kts
17-Feb-17 10:13 34.327499 -119.297809 259 5962ft 155kts
17-Feb-17 10:14 34.323534 -119.349980 259 5962ft 155kts
17-Feb-17 10:15 34.319555 -119.402015 259 5962ft 155kts
17-Feb-17 10:16 34.315854 -119.450781 259 6066ft 152kts
17-Feb-17 10:17 34.311721 -119.503028 259 5961ft 156kts
17-Feb-17 10:18 34.316928 -119.555721 272 5961ft 160kts
17-Feb-17 10:19 34.324319 -119.608658 272 5950ft 160kts
17-Feb-17 10:20 34.331673 -119.661431 271 5937ft 159kts
17-Feb-17 10:21 34.339083 -119.716101 272 5508ft 174kts
17-Feb-17 10:22 34.345077 -119.774597 261 4717ft 174kts
17-Feb-17 10:23 34.341856 -119.833168 261 3952ft 172kts
17-Feb-17 10:24 34.339089 -119.887521 261 3934ft 156kts
17-Feb-17 10:25 34.336678 -119.939158 261 3989ft 153kts
17-Feb-17 10:26 34.334265 -119.990623 261 3989ft 154kts
17-Feb-17 10:27 34.331803 -120.042296 261 3989ft 154kts
17-Feb-17 10:28 34.330038 -120.094018 278 3983ft 160kts
17-Feb-17 10:29 34.377884 -120.107529 352 3365ft 185kts
17-Feb-17 10:30 34.420050 -120.088919 47 2460ft 164kts
17-Feb-17 10:31 34.423860 -120.048736 94 2426ft 93kts
17-Feb-17 10:32 34.424174 -120.024640 90 2378ft 68kts
17-Feb-17 10:33 34.425029 -119.996301 93 2301ft 75kts
17-Feb-17 10:34 34.425469 -119.967538 95 1888ft 83kts
17-Feb-17 10:35 34.425773 -119.939580 93 1434ft 80kts
17-Feb-17 10:36 34.426425 -119.912005 92 1053ft 86kts
17-Feb-17 10:37 34.426769 -119.882344 91 514ft 86kts
17-Feb-17 10:38 34.427495 -119.855682 92 67ft 61kts
17-Feb-17 10:39 34.428444 -119.845642 54 15ft 0kts
17-Feb-17 10:40 34.430824 -119.839471 65 15ft 26kts
17-Feb-17 10:41 34.432770 -119.834737 332 15ft 0kts

Navigation Log

Ident Type
1. KVNY Airport
2. FIM Navaid
3. HENER Fix
4. DEANO Fix
5. KWANG Fix
6. KSBA Airport